createdAt,value
2023-02-02T00:00:09.506Z,23.46
2023-02-02T00:01:09.528Z,23.48
2023-02-02T00:02:09.525Z,23.48
2023-02-02T00:03:09.527Z,23.48
2023-02-02T00:04:09.587Z,23.45
2023-02-02T00:05:09.536Z,23.48
2023-02-02T00:06:09.544Z,23.48
2023-02-02T00:07:09.532Z,23.46
2023-02-02T00:08:09.539Z,23.48
2023-02-02T00:09:09.546Z,23.45
2023-02-02T00:10:09.562Z,23.45
2023-02-02T00:11:09.558Z,23.48
2023-02-02T00:12:09.548Z,23.46
2023-02-02T00:13:09.569Z,23.46
2023-02-02T00:14:09.570Z,23.49
2023-02-02T00:15:09.572Z,23.46
2023-02-02T00:16:09.627Z,23.46
2023-02-02T00:17:09.651Z,23.46
2023-02-02T00:18:09.592Z,23.44
2023-02-02T00:19:09.590Z,23.46
2023-02-02T00:20:09.674Z,23.45
2023-02-02T00:21:09.599Z,23.45
2023-02-02T00:22:09.681Z,23.46
2023-02-02T00:23:09.610Z,23.46
2023-02-02T00:24:09.611Z,23.46
2023-02-02T00:25:09.615Z,23.46
2023-02-02T00:26:09.621Z,23.48
2023-02-02T00:27:09.634Z,23.44
2023-02-02T00:28:09.644Z,23.48
2023-02-02T00:29:09.645Z,23.44
2023-02-02T00:30:09.662Z,23.46
2023-02-02T00:31:09.698Z,23.48
2023-02-02T00:32:09.667Z,23.46
2023-02-02T00:33:09.681Z,23.46
2023-02-02T00:34:09.675Z,23.45
2023-02-02T00:35:09.680Z,23.45
2023-02-02T00:36:09.688Z,23.46
2023-02-02T00:37:09.682Z,23.48
2023-02-02T00:38:09.682Z,23.44
2023-02-02T00:39:09.691Z,23.48
2023-02-02T00:40:09.692Z,23.44
2023-02-02T00:41:09.691Z,23.45
2023-02-02T00:42:09.775Z,23.45
2023-02-02T00:43:09.692Z,23.44
2023-02-02T00:44:09.708Z,23.46
2023-02-02T00:45:09.705Z,23.48
2023-02-02T00:46:09.739Z,23.46
2023-02-02T00:47:09.720Z,23.44
2023-02-02T00:48:09.703Z,23.45
2023-02-02T00:49:09.704Z,23.46
2023-02-02T00:50:09.707Z,23.46
2023-02-02T00:51:09.708Z,23.45
2023-02-02T00:52:09.718Z,23.44
2023-02-02T00:53:09.744Z,23.45
2023-02-02T00:54:09.721Z,23.45
2023-02-02T00:55:09.795Z,23.44
2023-02-02T00:56:09.734Z,23.45
2023-02-02T00:57:09.745Z,23.46
2023-02-02T00:58:09.743Z,23.46
2023-02-02T00:59:09.825Z,23.46
2023-02-02T01:00:09.746Z,23.46
2023-02-02T01:01:09.800Z,23.45
2023-02-02T01:02:09.793Z,23.44
2023-02-02T01:03:09.761Z,23.46
2023-02-02T01:04:09.770Z,23.46
2023-02-02T01:05:09.774Z,23.46
2023-02-02T01:06:09.767Z,23.45
2023-02-02T01:07:09.785Z,23.45
2023-02-02T01:08:09.777Z,23.44
2023-02-02T01:09:09.792Z,23.46
2023-02-02T01:10:09.794Z,23.45
2023-02-02T01:11:10.701Z,23.45
2023-02-02T01:12:09.795Z,23.46
2023-02-02T01:13:09.804Z,23.44
2023-02-02T01:14:09.811Z,23.45
2023-02-02T01:15:09.818Z,23.45
2023-02-02T01:16:09.872Z,23.45
2023-02-02T01:17:09.825Z,23.45
2023-02-02T01:18:10.704Z,23.44
2023-02-02T01:19:09.823Z,23.45
2023-02-02T01:20:10.218Z,23.44
2023-02-02T01:21:09.841Z,23.44
2023-02-02T01:22:09.848Z,23.44
2023-02-02T01:23:09.848Z,23.45
2023-02-02T01:24:09.862Z,23.45
2023-02-02T01:25:09.860Z,23.44
2023-02-02T01:26:09.852Z,23.45
2023-02-02T01:27:09.860Z,23.45
2023-02-02T01:28:09.863Z,23.44
2023-02-02T01:29:09.865Z,23.41
2023-02-02T01:30:09.873Z,23.42
2023-02-02T01:31:09.931Z,23.44
2023-02-02T01:32:09.893Z,23.44
2023-02-02T01:33:09.892Z,23.42
2023-02-02T01:34:09.904Z,23.41
2023-02-02T01:35:09.908Z,23.44
2023-02-02T01:36:09.918Z,23.41
2023-02-02T01:37:09.936Z,23.42
2023-02-02T01:38:09.925Z,23.41
2023-02-02T05:01:14.809Z,23.94
2023-02-02T05:22:14.458Z,24.04
2023-02-02T05:23:14.492Z,24.04
2023-02-02T05:24:14.514Z,24.05
2023-02-02T05:25:14.547Z,24.05
2023-02-02T05:26:14.653Z,24.04
2023-02-02T05:27:14.606Z,24.04
2023-02-02T05:28:14.639Z,24.05
2023-02-02T05:29:14.711Z,24.07
2023-02-02T05:30:14.692Z,24.05
2023-02-02T05:31:14.764Z,24.07
2023-02-02T05:32:14.761Z,24.04
2023-02-02T05:33:14.788Z,24.05
2023-02-02T05:34:14.818Z,24.05
2023-02-02T05:35:14.851Z,24.05
2023-02-02T05:36:14.891Z,24.05
2023-02-02T05:37:14.898Z,24.07
2023-02-02T05:38:14.932Z,24.07
2023-02-02T05:39:14.966Z,24.05
2023-02-02T05:40:14.994Z,24.08
2023-02-02T05:41:15.043Z,24.08
2023-02-02T05:42:15.054Z,24.09
2023-02-02T07:11:17.203Z,24.66
2023-02-02T10:21:22.079Z,25.53
2023-02-02T10:22:22.127Z,25.56
2023-02-02T10:23:22.183Z,25.59
2023-02-02T10:24:22.238Z,25.59
2023-02-02T10:25:22.358Z,25.60
2023-02-02T10:26:22.456Z,25.61
2023-02-02T10:27:22.340Z,25.61
2023-02-02T10:28:22.394Z,25.64
2023-02-02T10:29:22.421Z,25.63
2023-02-02T10:30:22.625Z,25.67
2023-02-02T10:31:22.561Z,25.70
2023-02-02T10:32:22.510Z,25.71
2023-02-02T10:33:22.545Z,25.71
2023-02-02T10:34:22.614Z,25.73
2023-02-02T10:35:22.596Z,25.71
2023-02-02T10:36:22.642Z,25.76
2023-02-02T10:37:22.649Z,25.77
2023-02-02T10:38:22.675Z,25.78
2023-02-02T10:39:22.687Z,25.80
2023-02-02T10:40:22.712Z,25.78
2023-02-02T10:41:22.732Z,25.83
2023-02-02T10:42:22.769Z,25.87
2023-02-02T10:43:22.789Z,25.87
2023-02-02T10:44:22.818Z,25.89
2023-02-02T10:45:22.832Z,25.88
2023-02-02T10:46:23.018Z,25.88
2023-02-02T10:47:22.895Z,25.88
2023-02-02T10:48:22.920Z,25.91
2023-02-02T10:49:22.937Z,25.91
2023-02-02T10:50:23.213Z,25.92
2023-02-02T10:51:22.988Z,25.92
2023-02-02T10:52:22.984Z,25.94
2023-02-02T10:53:23.019Z,25.94
2023-02-02T10:54:23.089Z,25.95
2023-02-02T10:55:23.100Z,25.95
2023-02-02T10:56:23.039Z,25.99
2023-02-02T10:57:23.061Z,25.96
2023-02-02T10:58:23.414Z,26.01
2023-02-02T10:59:23.104Z,26.05
2023-02-02T11:00:23.581Z,26.02
2023-02-02T11:01:23.222Z,26.05
2023-02-02T11:02:23.150Z,26.09
2023-02-02T11:03:23.176Z,26.11
2023-02-02T11:04:23.152Z,26.09
2023-02-02T11:05:23.176Z,26.12
2023-02-02T11:06:23.212Z,26.13
2023-02-02T11:07:23.834Z,26.21
2023-02-02T11:08:23.287Z,26.19
2023-02-02T11:09:23.224Z,26.19
2023-02-02T11:10:23.441Z,26.18
2023-02-02T11:11:23.244Z,26.19
2023-02-02T11:12:23.267Z,26.23
2023-02-02T11:13:23.281Z,26.26
2023-02-02T11:14:23.288Z,26.25
2023-02-02T11:15:23.302Z,26.26
2023-02-02T11:16:23.400Z,26.28
2023-02-02T11:17:23.351Z,26.26
2023-02-02T11:18:23.377Z,26.30
2023-02-02T11:19:23.407Z,26.30
2023-02-02T11:20:23.867Z,26.26
2023-02-02T11:31:25.014Z,26.13
2023-02-02T12:01:24.936Z,25.66
2023-02-02T12:07:24.486Z,25.61
2023-02-02T12:08:25.433Z,25.60
2023-02-02T12:09:24.567Z,25.57
2023-02-02T12:10:24.877Z,25.54
2023-02-02T12:11:24.596Z,25.53
2023-02-02T12:12:24.636Z,25.53
2023-02-02T12:13:24.674Z,25.50
2023-02-02T12:14:24.702Z,25.52
2023-02-02T12:15:24.722Z,25.52
2023-02-02T12:16:24.781Z,25.49
2023-02-02T12:17:24.797Z,25.47
2023-02-02T12:18:24.813Z,25.47
2023-02-02T12:19:24.854Z,25.46
2023-02-02T12:20:25.231Z,25.46
2023-02-02T12:21:24.944Z,25.44
2023-02-02T12:22:24.964Z,25.42
2023-02-02T12:23:24.988Z,25.42
2023-02-02T12:24:25.444Z,25.40
2023-02-02T12:25:25.427Z,25.39
2023-02-02T12:26:25.220Z,25.37
2023-02-02T12:27:25.145Z,25.37
2023-02-02T12:28:25.173Z,25.36
2023-02-02T12:29:25.213Z,25.39
2023-02-02T12:30:25.713Z,25.36
2023-02-02T12:31:25.447Z,25.35
2023-02-02T12:32:25.317Z,25.36
2023-02-02T12:33:25.359Z,25.37
2023-02-02T12:34:25.479Z,25.36
2023-02-02T12:35:25.429Z,25.37
2023-02-02T12:36:25.464Z,25.39
2023-02-02T12:37:25.502Z,25.37
2023-02-02T12:38:25.535Z,25.36
2023-02-02T12:39:25.958Z,25.35
2023-02-02T12:40:26.019Z,25.35
2023-02-02T12:41:25.643Z,25.36
2023-02-02T12:42:25.676Z,25.35
2023-02-02T12:43:25.723Z,25.33
2023-02-02T12:44:25.761Z,25.32
2023-02-02T12:45:25.820Z,25.33
2023-02-02T12:46:25.819Z,25.33
2023-02-02T12:47:25.859Z,25.32
2023-02-02T12:48:25.905Z,25.35
2023-02-02T12:49:25.930Z,25.30
2023-02-02T12:50:26.311Z,25.32
2023-02-02T12:51:26.015Z,25.32
2023-02-02T12:52:26.047Z,25.30
2023-02-02T12:53:26.159Z,25.30
2023-02-02T12:54:33.453Z,25.32
2023-02-02T12:55:27.116Z,25.30
2023-02-02T12:56:26.103Z,25.26
2023-02-02T12:57:26.092Z,25.30
2023-02-02T12:58:26.098Z,25.26
2023-02-02T12:59:26.526Z,25.26
2023-02-02T13:00:26.593Z,25.23
2023-02-02T13:01:26.138Z,25.25
2023-02-02T13:02:26.095Z,25.23
2023-02-02T13:03:26.055Z,25.23
2023-02-02T13:04:26.469Z,25.22
2023-02-02T13:05:26.036Z,25.22
2023-02-02T13:06:26.030Z,25.19
2023-02-02T13:07:26.040Z,25.18
2023-02-02T13:08:26.096Z,25.17
2023-02-02T13:09:26.151Z,25.14
2023-02-02T13:10:26.599Z,25.14
2023-02-02T13:11:26.260Z,25.08
2023-02-02T13:12:26.394Z,25.08
2023-02-02T13:13:26.362Z,25.07
2023-02-02T13:14:26.379Z,25.04
2023-02-02T13:15:26.358Z,25.01
2023-02-02T13:16:26.391Z,24.98
2023-02-02T13:17:26.405Z,24.97
2023-02-02T13:18:26.363Z,24.95
2023-02-02T13:19:26.367Z,24.94
2023-02-02T13:20:26.682Z,24.92
2023-02-02T13:21:26.382Z,24.91
2023-02-02T13:22:26.379Z,24.90
2023-02-02T13:23:26.415Z,24.90
2023-02-02T13:24:26.412Z,24.87
2023-02-02T13:25:26.866Z,24.90
2023-02-02T13:26:26.654Z,24.88
2023-02-02T13:27:27.436Z,24.88
2023-02-02T13:28:26.426Z,24.90
2023-02-02T13:29:26.427Z,24.85
2023-02-02T13:30:26.442Z,24.88
2023-02-02T13:31:26.655Z,24.85
2023-02-02T13:32:26.497Z,24.87
2023-02-02T13:33:26.501Z,24.88
2023-02-02T13:34:27.469Z,24.88
2023-02-02T13:35:27.782Z,24.85
2023-02-02T13:36:26.547Z,24.90
2023-02-02T13:37:26.551Z,24.87
2023-02-02T13:38:26.586Z,24.88
2023-02-02T13:39:26.562Z,24.87
2023-02-02T13:40:26.692Z,24.85
2023-02-02T13:41:26.777Z,24.84
2023-02-02T13:42:26.721Z,24.85
2023-02-02T13:43:26.673Z,24.84
2023-02-02T13:44:27.556Z,24.85
2023-02-02T13:45:26.972Z,24.81
2023-02-02T13:46:26.768Z,24.84
2023-02-02T13:47:26.723Z,24.85
2023-02-02T13:48:26.718Z,24.84
2023-02-02T13:49:26.720Z,24.83
2023-02-02T13:50:26.762Z,24.84
2023-02-02T13:51:26.763Z,24.84
2023-02-02T13:52:26.793Z,24.81
2023-02-02T13:53:26.787Z,24.83
2023-02-02T13:54:26.824Z,24.85
2023-02-02T13:55:27.204Z,24.80
2023-02-02T13:56:26.866Z,24.81
2023-02-02T13:57:26.869Z,24.81
2023-02-02T13:58:26.877Z,24.81
2023-02-02T13:59:26.874Z,24.81
2023-02-02T14:00:26.898Z,24.81
2023-02-02T14:01:26.944Z,24.83
2023-02-02T14:02:26.955Z,24.84
2023-02-02T14:03:26.909Z,24.80
2023-02-02T14:04:26.923Z,24.81
2023-02-02T14:05:27.289Z,24.83
2023-02-02T14:06:26.976Z,24.81
2023-02-02T14:07:27.477Z,24.80
2023-02-02T14:08:27.061Z,24.80
2023-02-02T14:09:26.998Z,24.77
2023-02-02T14:10:27.008Z,24.81
2023-02-02T14:11:27.043Z,24.81
2023-02-02T14:12:27.055Z,24.80
2023-02-02T14:13:27.059Z,24.81
2023-02-02T14:14:27.067Z,24.80
2023-02-02T14:15:30.229Z,24.78
2023-02-02T14:16:27.087Z,24.76
2023-02-02T14:17:27.075Z,24.78
2023-02-02T14:18:27.070Z,24.76
2023-02-02T14:19:27.059Z,24.76
2023-02-02T14:20:28.028Z,24.74
2023-02-02T14:21:27.044Z,24.76
2023-02-02T14:22:27.038Z,24.73
2023-02-02T14:23:27.034Z,24.74
2023-02-02T14:24:27.017Z,24.73
2023-02-02T14:25:27.295Z,24.74
2023-02-02T14:26:27.054Z,24.73
2023-02-02T14:27:27.110Z,24.73
2023-02-02T14:28:26.987Z,24.71
2023-02-02T14:29:27.488Z,24.73
2023-02-02T14:30:27.135Z,24.71
2023-02-02T14:31:27.057Z,24.73
2023-02-02T14:32:27.055Z,24.68
2023-02-02T14:33:26.963Z,24.67
2023-02-02T14:34:26.960Z,24.68
2023-02-02T14:35:27.360Z,24.68
2023-02-02T14:36:26.934Z,24.67
2023-02-02T14:37:26.934Z,24.68
2023-02-02T14:38:26.924Z,24.67
2023-02-02T14:39:26.931Z,24.67
2023-02-02T14:40:26.920Z,24.68
2023-02-02T14:41:26.973Z,24.67
2023-02-02T14:42:26.899Z,24.67
2023-02-02T14:43:26.887Z,24.64
2023-02-02T14:44:26.896Z,24.64
2023-02-02T14:45:27.344Z,24.64
2023-02-02T14:46:26.915Z,24.64
2023-02-02T14:47:26.867Z,24.64
2023-02-02T14:48:26.851Z,24.63
2023-02-02T14:49:26.853Z,24.62
2023-02-02T14:50:26.839Z,24.62
2023-02-02T14:51:26.834Z,24.62
2023-02-02T14:52:26.824Z,24.62
2023-02-02T14:53:26.828Z,24.60
2023-02-02T14:54:26.872Z,24.62
2023-02-02T14:55:27.271Z,24.62
2023-02-02T14:56:26.798Z,24.63
2023-02-02T14:57:26.821Z,24.63
2023-02-02T14:58:26.778Z,24.59
2023-02-02T14:59:26.786Z,24.60
2023-02-02T15:00:26.783Z,24.60
2023-02-02T15:01:26.807Z,24.60
2023-02-02T15:02:26.778Z,24.60
2023-02-02T15:03:26.745Z,24.62
2023-02-02T15:04:26.743Z,24.62
2023-02-02T15:05:27.123Z,24.60
2023-02-02T15:06:26.727Z,24.60
2023-02-02T15:07:26.715Z,24.60
2023-02-02T15:08:26.712Z,24.60
2023-02-02T15:09:26.725Z,24.59
2023-02-02T15:10:26.743Z,24.60
2023-02-02T15:11:26.777Z,24.57
2023-02-02T15:12:26.801Z,24.60
2023-02-02T15:13:26.842Z,24.57
2023-02-02T15:14:26.859Z,24.59
2023-02-02T15:15:27.240Z,24.57
2023-02-02T15:16:26.910Z,24.56
2023-02-02T15:17:26.916Z,24.60
2023-02-02T15:18:26.956Z,24.56
2023-02-02T15:19:26.972Z,24.57
2023-02-02T15:20:27.003Z,24.59
2023-02-02T15:21:27.020Z,24.59
2023-02-02T15:22:27.068Z,24.55
2023-02-02T15:23:27.064Z,24.59
2023-02-02T15:24:27.097Z,24.55
2023-02-02T15:25:27.413Z,24.55
2023-02-02T15:26:27.204Z,24.55
2023-02-02T15:27:27.163Z,24.56
2023-02-02T15:28:27.186Z,24.55
2023-02-02T15:29:27.218Z,24.57
2023-02-02T15:30:27.309Z,24.53
2023-02-02T15:31:27.395Z,24.57
2023-02-02T15:32:27.295Z,24.55
2023-02-02T15:33:27.304Z,24.53
2023-02-02T15:34:27.340Z,24.55
2023-02-02T15:35:27.622Z,24.55
2023-02-02T15:36:27.385Z,24.55
2023-02-02T15:37:27.400Z,24.56
2023-02-02T15:38:27.428Z,24.53
2023-02-02T15:39:27.461Z,24.53
2023-02-02T15:40:27.470Z,24.53
2023-02-02T15:41:27.506Z,24.52
2023-02-02T15:42:27.528Z,24.53
2023-02-02T15:43:27.557Z,24.50
2023-02-02T15:44:27.585Z,24.49
2023-02-02T15:45:27.614Z,24.50
2023-02-02T15:46:27.663Z,24.50
2023-02-02T15:47:27.666Z,24.53
2023-02-02T15:48:27.688Z,24.50
2023-02-02T15:49:34.439Z,24.50
2023-02-02T15:50:28.719Z,24.49
2023-02-02T15:51:27.703Z,24.48
2023-02-02T15:52:27.695Z,24.50
2023-02-02T15:53:27.693Z,24.49
2023-02-02T15:54:27.681Z,24.49
2023-02-02T15:55:28.909Z,24.49
2023-02-02T15:56:27.664Z,24.49
2023-02-02T15:57:27.655Z,24.46
2023-02-02T15:58:27.654Z,24.46
2023-02-02T15:59:27.640Z,24.44
2023-02-02T16:00:27.792Z,24.46
2023-02-02T16:01:27.633Z,24.46
2023-02-02T16:02:27.621Z,24.43
2023-02-02T16:03:27.619Z,24.44
2023-02-02T16:04:27.637Z,24.43
2023-02-02T16:05:27.858Z,24.42
2023-02-02T16:06:27.618Z,24.40
2023-02-02T16:07:27.600Z,24.43
2023-02-02T16:08:27.605Z,24.40
2023-02-02T16:09:27.642Z,24.40
2023-02-02T16:10:27.670Z,24.40
2023-02-02T16:11:28.529Z,24.39
2023-02-02T16:12:27.731Z,24.38
2023-02-02T16:13:27.752Z,24.40
2023-02-02T16:14:27.872Z,24.40
2023-02-02T16:15:27.995Z,24.40
2023-02-02T16:16:27.861Z,24.36
2023-02-02T16:17:27.872Z,24.36
2023-02-02T16:18:27.911Z,24.36
2023-02-02T16:19:27.967Z,24.36
2023-02-02T16:20:28.068Z,24.33
2023-02-02T16:21:28.072Z,24.33
2023-02-02T16:22:28.057Z,24.33
2023-02-02T16:23:28.094Z,24.33
2023-02-02T16:24:28.133Z,24.33
2023-02-02T16:25:28.288Z,24.33
2023-02-02T16:26:28.223Z,24.32
2023-02-02T16:27:28.251Z,24.31
2023-02-02T16:28:28.283Z,24.35
2023-02-02T16:29:28.370Z,24.32
2023-02-02T16:30:28.357Z,24.32
2023-02-02T16:31:28.419Z,24.31
2023-02-02T16:32:28.438Z,24.33
2023-02-02T16:33:28.465Z,24.31
2023-02-02T16:34:28.511Z,24.32
2023-02-02T16:35:28.553Z,24.29
2023-02-02T16:36:28.574Z,24.32
2023-02-02T16:37:28.616Z,24.31
2023-02-02T16:38:28.643Z,24.29
2023-02-02T16:39:28.682Z,24.28
2023-02-02T16:40:28.715Z,24.29
2023-02-02T16:41:28.812Z,24.29
2023-02-02T16:42:28.783Z,24.31
2023-02-02T16:43:28.822Z,24.29
2023-02-02T16:44:28.868Z,24.28
2023-02-02T16:45:29.197Z,24.28
2023-02-02T16:46:28.965Z,24.28
2023-02-02T16:47:29.068Z,24.29
2023-02-02T16:48:29.028Z,24.28
2023-02-02T16:49:29.069Z,24.26
2023-02-02T16:50:29.109Z,24.26
2023-02-02T16:51:29.158Z,24.26
2023-02-02T16:52:29.184Z,24.28
2023-02-02T16:53:29.234Z,24.28
2023-02-02T16:54:29.260Z,24.28
2023-02-02T16:55:39.909Z,24.24
2023-02-02T16:56:30.310Z,24.26
2023-02-02T16:57:29.322Z,24.24
2023-02-02T16:58:29.382Z,24.25
2023-02-02T16:59:29.280Z,24.24
2023-02-02T17:00:29.283Z,24.24
2023-02-02T17:01:29.300Z,24.25
2023-02-02T17:02:29.306Z,24.25
2023-02-02T17:03:29.255Z,24.25
2023-02-02T17:04:29.249Z,24.24
2023-02-02T17:05:29.251Z,24.21
2023-02-02T17:06:35.748Z,24.24
2023-02-02T17:07:30.238Z,24.21
2023-02-02T17:08:29.230Z,24.22
2023-02-02T17:09:29.231Z,24.22
2023-02-02T17:10:29.217Z,24.21
2023-02-02T17:11:29.240Z,24.21
2023-02-02T17:12:34.800Z,24.22
2023-02-02T17:13:31.137Z,24.21
2023-02-02T17:14:29.261Z,24.19
2023-02-02T17:15:29.571Z,24.21
2023-02-02T17:16:29.282Z,24.19
2023-02-02T17:17:29.242Z,24.22
2023-02-02T17:18:29.242Z,24.19
2023-02-02T17:19:29.231Z,24.19
2023-02-02T17:20:29.220Z,24.19
2023-02-02T17:21:29.222Z,24.19
2023-02-02T17:22:29.211Z,24.18
2023-02-02T17:23:29.206Z,24.21
2023-02-02T17:24:29.201Z,24.19
2023-02-02T17:25:29.202Z,24.19
2023-02-02T17:26:29.298Z,24.19
2023-02-02T17:27:29.311Z,24.21
2023-02-02T17:28:29.364Z,24.19
2023-02-02T17:29:29.401Z,24.19
2023-02-02T17:30:29.475Z,24.18
2023-02-02T17:31:29.596Z,24.21
2023-02-02T17:32:29.551Z,24.21
2023-02-02T17:33:29.594Z,24.16
2023-02-02T17:34:29.653Z,24.18
2023-02-02T17:35:39.880Z,24.18
2023-02-02T17:36:30.699Z,24.18
2023-02-02T17:37:29.689Z,24.18
2023-02-02T17:38:29.759Z,24.19
2023-02-02T17:39:29.664Z,24.16
2023-02-02T17:40:29.667Z,24.16
2023-02-02T17:41:29.665Z,24.16
2023-02-02T17:42:29.655Z,24.16
2023-02-02T17:43:29.640Z,24.16
2023-02-02T17:44:29.627Z,24.15
2023-02-02T17:45:29.628Z,24.19
2023-02-02T17:46:29.700Z,24.15
2023-02-02T17:47:30.569Z,24.15
2023-02-02T17:48:29.773Z,24.16
2023-02-02T17:49:29.822Z,24.16
2023-02-02T17:50:29.953Z,24.15
2023-02-02T17:51:29.912Z,24.15
2023-02-02T17:52:30.639Z,24.18
2023-02-02T17:53:31.635Z,24.15
2023-02-02T17:54:30.197Z,24.16
2023-02-02T17:55:30.235Z,24.16
2023-02-02T17:56:30.294Z,24.12
2023-02-02T17:57:30.340Z,24.16
2023-02-02T17:58:30.372Z,24.15
2023-02-02T17:59:30.422Z,24.15
2023-02-02T18:00:31.535Z,24.14
2023-02-02T18:01:30.585Z,24.16
2023-02-02T18:02:30.691Z,24.14
2023-02-02T18:03:32.465Z,24.14
2023-02-02T18:04:30.607Z,24.15
2023-02-02T18:05:30.592Z,24.15
2023-02-02T18:06:30.587Z,24.15
2023-02-02T18:07:30.588Z,24.14
2023-02-02T18:08:30.585Z,24.15
2023-02-02T18:09:33.429Z,24.12
2023-02-02T18:10:30.560Z,24.14
2023-02-02T18:11:31.495Z,24.12
2023-02-02T18:12:30.553Z,24.14
2023-02-02T18:13:30.555Z,24.12
2023-02-02T18:14:30.535Z,24.11
2023-02-02T18:15:30.569Z,24.14
2023-02-02T18:16:30.529Z,24.12
2023-02-02T18:17:33.041Z,24.14
2023-02-02T18:18:30.603Z,24.09
2023-02-02T18:19:30.505Z,24.11
2023-02-02T18:20:30.494Z,24.14
2023-02-02T18:21:30.479Z,24.12
2023-02-02T18:22:30.483Z,24.11
2023-02-02T18:23:30.506Z,24.11
2023-02-02T18:24:31.074Z,24.11
2023-02-02T18:25:30.456Z,24.12
2023-02-02T18:26:30.516Z,24.12
2023-02-02T18:27:30.513Z,24.11
2023-02-02T18:28:30.450Z,24.11
2023-02-02T18:29:30.434Z,24.12
2023-02-02T18:30:30.423Z,24.11
2023-02-02T18:31:30.539Z,24.11
2023-02-02T18:32:30.408Z,24.09
2023-02-02T18:33:30.419Z,24.11
2023-02-02T18:34:30.395Z,24.09
2023-02-02T18:35:30.392Z,24.09
2023-02-02T18:36:30.377Z,24.11
2023-02-02T18:37:30.371Z,24.09
2023-02-02T18:38:30.448Z,24.11
2023-02-02T18:39:30.367Z,24.08
2023-02-02T18:40:30.367Z,24.09
2023-02-02T18:41:30.357Z,24.11
2023-02-02T18:42:30.328Z,24.09
2023-02-02T18:43:30.337Z,24.07
2023-02-02T18:44:30.332Z,24.07
2023-02-02T18:45:30.314Z,24.08
2023-02-02T18:46:30.349Z,24.11
2023-02-02T18:47:30.300Z,24.08
2023-02-02T18:48:30.307Z,24.09
2023-02-02T18:49:30.294Z,24.09
2023-02-02T18:50:30.307Z,24.08
2023-02-02T18:51:30.312Z,24.09
2023-02-02T18:52:30.363Z,24.09
2023-02-02T18:53:30.427Z,24.11
2023-02-02T18:54:30.479Z,24.09
2023-02-02T18:55:30.540Z,24.09
2023-02-02T18:56:30.582Z,24.08
2023-02-02T18:57:30.668Z,24.09
2023-02-02T18:58:30.696Z,24.07
2023-02-02T18:59:30.766Z,24.09
2023-02-02T19:00:30.829Z,24.09
2023-02-02T19:01:30.894Z,24.07
2023-02-02T19:02:30.898Z,24.08
2023-02-02T19:03:31.020Z,24.07
2023-02-02T19:04:31.026Z,24.09
2023-02-02T19:05:31.092Z,24.08
2023-02-02T19:06:31.125Z,24.08
2023-02-02T19:07:31.189Z,24.08
2023-02-02T19:49:33.395Z,24.04
2023-02-02T19:50:33.456Z,24.04
2023-02-02T19:51:33.514Z,24.03
2023-02-02T19:52:33.565Z,24.03
2023-02-02T19:53:33.600Z,24.05
2023-02-02T19:54:33.670Z,24.04
2023-02-02T19:55:34.695Z,24.04
2023-02-02T19:56:33.789Z,24.01
2023-02-02T19:57:33.845Z,24.03
2023-02-02T19:58:33.905Z,24.01
2023-02-02T19:59:33.942Z,24.05
2023-02-02T20:00:34.042Z,24.05
2023-02-02T20:01:34.655Z,24.03
2023-02-02T20:02:34.227Z,24.04
2023-02-02T20:03:34.186Z,24.03
2023-02-02T20:04:34.240Z,24.01
2023-02-02T20:05:34.371Z,24.03
2023-02-02T20:06:37.247Z,24.03
2023-02-02T20:09:34.357Z,24.04
2023-02-02T20:10:34.341Z,24.01
2023-02-02T20:11:34.325Z,24.01
2023-02-02T20:12:34.318Z,23.98
2023-02-02T20:13:34.311Z,24.00
2023-02-02T20:51:36.383Z,23.98
2023-02-02T20:52:37.133Z,23.96
2023-02-02T20:53:36.501Z,24.00
2023-02-02T20:54:36.565Z,23.97
2023-02-02T21:18:37.950Z,23.96
2023-02-02T21:19:38.018Z,23.97
2023-02-02T21:20:38.113Z,23.96
2023-02-02T21:21:38.194Z,23.96
2023-02-02T21:22:38.172Z,23.96
2023-02-02T21:23:38.238Z,23.96
2023-02-02T21:24:38.305Z,23.96
2023-02-02T21:25:38.365Z,23.94
2023-02-02T21:26:38.423Z,23.96
2023-02-02T21:27:38.480Z,23.96
2023-02-02T21:28:38.534Z,23.96
2023-02-02T21:29:38.613Z,23.97
2023-02-02T21:30:38.706Z,23.97
2023-02-02T21:31:38.826Z,23.94
2023-02-02T21:33:38.891Z,23.93
2023-02-02T21:34:38.875Z,23.97
2023-02-02T21:35:38.920Z,23.94
2023-02-02T21:36:38.966Z,23.96
2023-02-02T21:37:39.039Z,23.96
2023-02-02T21:38:39.096Z,23.94
2023-02-02T21:39:39.239Z,23.94
2023-02-02T21:40:39.203Z,23.96
2023-02-02T21:41:39.274Z,23.96
2023-02-02T21:42:39.328Z,23.93
2023-02-02T21:43:39.421Z,23.94
2023-02-02T21:44:40.154Z,23.94
2023-02-02T21:45:39.543Z,23.96
2023-02-02T21:46:39.598Z,23.96
2023-02-02T21:47:39.615Z,23.94
2023-02-02T21:48:39.698Z,23.96
2023-02-02T21:49:39.783Z,23.93
2023-02-02T21:50:39.793Z,23.94
2023-02-02T21:51:39.839Z,23.94
2023-02-02T21:52:39.905Z,23.96
2023-02-02T21:53:39.966Z,23.96
2023-02-02T21:54:40.027Z,23.94
2023-02-02T21:55:40.049Z,23.96
2023-02-02T21:56:40.119Z,23.93
2023-02-02T21:57:40.149Z,23.93
2023-02-02T21:58:40.219Z,23.94
2023-02-02T22:00:40.660Z,23.94
2023-02-02T23:08:43.686Z,23.84
2023-02-02T23:13:43.375Z,23.85
2023-02-02T23:14:43.409Z,23.87
2023-02-02T23:15:43.489Z,23.87
2023-02-02T23:16:43.494Z,23.87
2023-02-02T23:17:43.525Z,23.87
2023-02-02T23:18:43.562Z,23.85
2023-02-02T23:19:43.597Z,23.85
2023-02-02T23:20:43.631Z,23.85
2023-02-02T23:21:44.198Z,23.84
2023-02-02T23:22:43.735Z,23.85
2023-02-02T23:23:43.764Z,23.85
2023-02-02T23:24:43.802Z,23.84
2023-02-02T23:25:43.845Z,23.84
2023-02-02T23:26:43.844Z,23.84
2023-02-02T23:27:43.875Z,23.83
2023-02-02T23:28:43.889Z,23.84
2023-02-02T23:29:43.902Z,23.84
2023-02-02T23:30:44.085Z,23.83
2023-02-02T23:31:43.948Z,23.84
2023-02-02T23:32:43.970Z,23.81
2023-02-02T23:33:44.006Z,23.84
2023-02-02T23:34:44.027Z,23.81
2023-02-02T23:35:44.075Z,23.84
2023-02-02T23:36:44.084Z,23.81
2023-02-02T23:37:44.106Z,23.83
2023-02-02T23:38:44.097Z,23.83
2023-02-02T23:39:44.089Z,23.83
2023-02-02T23:40:44.106Z,23.81
2023-02-02T23:41:44.112Z,23.83
2023-02-02T23:42:44.119Z,23.83
2023-02-02T23:43:44.126Z,23.83
2023-02-02T23:44:44.153Z,23.81
2023-02-02T23:45:44.236Z,23.83
2023-02-02T23:46:44.203Z,23.81
2023-02-02T23:47:44.179Z,23.81
2023-02-02T23:48:44.227Z,23.83
2023-02-02T23:49:44.218Z,23.81
2023-02-02T23:50:44.235Z,23.81
2023-02-02T23:51:44.241Z,23.81
2023-02-02T23:52:44.256Z,23.83
2023-02-02T23:53:44.240Z,23.84
2023-02-02T23:54:44.254Z,23.80
2023-02-02T23:55:44.229Z,23.80
2023-02-02T23:56:45.228Z,23.80
2023-02-02T23:57:44.231Z,23.83
2023-02-02T23:58:45.281Z,23.81
2023-02-02T23:59:44.237Z,23.79
